sensor_id;sensor_type;location;lat;lon;timestamp;pressure;altitude;pressure_sealevel;temperature;humidity
50065;BME280;35951;47.848;-122.338;2022-08-23T00:01:35;101554.10;;;22.45;100.00
50065;BME280;35951;47.848;-122.338;2022-08-23T00:04:08;101554.96;;;22.47;100.00
50065;BME280;35951;47.848;-122.338;2022-08-23T00:06:38;101549.17;;;22.49;100.00
50065;BME280;35951;47.848;-122.338;2022-08-23T00:09:07;101550.98;;;22.47;100.00
50065;BME280;35951;47.848;-122.338;2022-08-23T00:12:02;101551.42;;;22.46;100.00
50065;BME280;35951;47.848;-122.338;2022-08-23T00:14:28;101543.52;;;22.45;100.00
50065;BME280;35951;47.848;-122.338;2022-08-23T00:16:58;101545.76;;;22.43;100.00
50065;BME280;35951;47.848;-122.338;2022-08-23T00:19:26;101547.05;;;22.45;100.00
50065;BME280;35951;47.848;-122.338;2022-08-23T00:21:55;101546.59;;;22.46;100.00
50065;BME280;35951;47.848;-122.338;2022-08-23T00:24:24;101543.91;;;22.47;100.00
50065;BME280;35951;47.848;-122.338;2022-08-23T00:27:13;101526.97;;;22.36;100.00
50065;BME280;35951;47.848;-122.338;2022-08-23T00:29:44;101543.45;;;22.48;100.00
50065;BME280;35951;47.848;-122.338;2022-08-23T00:32:20;101550.89;;;22.50;100.00
50065;BME280;35951;47.848;-122.338;2022-08-23T00:34:50;101541.13;;;22.52;100.00
50065;BME280;35951;47.848;-122.338;2022-08-23T00:37:18;101540.10;;;22.57;100.00
50065;BME280;35951;47.848;-122.338;2022-08-23T00:39:46;101538.31;;;22.59;100.00
50065;BME280;35951;47.848;-122.338;2022-08-23T00:42:33;101543.11;;;22.61;100.00
50065;BME280;35951;47.848;-122.338;2022-08-23T00:45:31;101546.98;;;22.65;100.00
50065;BME280;35951;47.848;-122.338;2022-08-23T00:48:31;101546.42;;;22.70;100.00
50065;BME280;35951;47.848;-122.338;2022-08-23T00:51:12;101542.91;;;22.69;100.00
50065;BME280;35951;47.848;-122.338;2022-08-23T00:53:45;101545.06;;;22.71;100.00
50065;BME280;35951;47.848;-122.338;2022-08-23T00:56:16;101536.61;;;22.73;100.00
50065;BME280;35951;47.848;-122.338;2022-08-23T00:58:44;101540.59;;;22.73;100.00
50065;BME280;35951;47.848;-122.338;2022-08-23T01:01:14;101537.01;;;22.76;100.00
50065;BME280;35951;47.848;-122.338;2022-08-23T01:03:44;101531.21;;;22.78;100.00
50065;BME280;35951;47.848;-122.338;2022-08-23T01:06:19;101537.33;;;22.80;100.00
50065;BME280;35951;47.848;-122.338;2022-08-23T01:08:49;101532.89;;;22.80;100.00
50065;BME280;35951;47.848;-122.338;2022-08-23T01:11:34;101535.55;;;22.80;100.00
50065;BME280;35951;47.848;-122.338;2022-08-23T01:14:26;101531.53;;;22.82;100.00
50065;BME280;35951;47.848;-122.338;2022-08-23T01:17:11;101531.00;;;22.86;100.00
50065;BME280;35951;47.848;-122.338;2022-08-23T01:19:51;101534.48;;;22.88;100.00
50065;BME280;35951;47.848;-122.338;2022-08-23T01:22:56;101537.95;;;22.90;100.00
50065;BME280;35951;47.848;-122.338;2022-08-23T01:25:33;101529.11;;;22.91;100.00
50065;BME280;35951;47.848;-122.338;2022-08-23T01:28:01;101532.61;;;22.91;100.00
50065;BME280;35951;47.848;-122.338;2022-08-23T01:30:31;101530.43;;;22.91;100.00
50065;BME280;35951;47.848;-122.338;2022-08-23T01:33:02;101538.41;;;22.89;100.00
50065;BME280;35951;47.848;-122.338;2022-08-23T01:38:18;101541.23;;;22.83;100.00
50065;BME280;35951;47.848;-122.338;2022-08-23T01:40:47;101541.70;;;22.81;100.00
50065;BME280;35951;47.848;-122.338;2022-08-23T01:43:16;101541.77;;;22.79;100.00
50065;BME280;35951;47.848;-122.338;2022-08-23T01:45:45;101540.91;;;22.77;100.00
50065;BME280;35951;47.848;-122.338;2022-08-23T01:48:14;101542.77;;;22.74;100.00
50065;BME280;35951;47.848;-122.338;2022-08-23T01:50:43;101544.23;;;22.69;100.00
50065;BME280;35951;47.848;-122.338;2022-08-23T01:53:11;101541.26;;;22.65;100.00
50065;BME280;35951;47.848;-122.338;2022-08-23T01:55:40;101541.75;;;22.63;100.00
50065;BME280;35951;47.848;-122.338;2022-08-23T01:58:09;101536.52;;;22.60;100.00
50065;BME280;35951;47.848;-122.338;2022-08-23T02:00:39;101542.81;;;22.56;100.00
50065;BME280;35951;47.848;-122.338;2022-08-23T02:03:07;101542.45;;;22.52;100.00
50065;BME280;35951;47.848;-122.338;2022-08-23T02:05:38;101540.77;;;22.49;100.00
50065;BME280;35951;47.848;-122.338;2022-08-23T02:08:07;101545.23;;;22.47;100.00
50065;BME280;35951;47.848;-122.338;2022-08-23T02:10:53;101546.13;;;22.46;100.00
50065;BME280;35951;47.848;-122.338;2022-08-23T02:13:20;101544.44;;;22.43;100.00
50065;BME280;35951;47.848;-122.338;2022-08-23T02:15:48;101546.69;;;22.41;100.00
50065;BME280;35951;47.848;-122.338;2022-08-23T02:18:19;101550.75;;;22.38;100.00
50065;BME280;35951;47.848;-122.338;2022-08-23T02:20:49;101548.63;;;22.34;100.00
50065;BME280;35951;47.848;-122.338;2022-08-23T02:23:18;101555.31;;;22.31;100.00
50065;BME280;35951;47.848;-122.338;2022-08-23T02:25:46;101555.87;;;22.26;100.00
50065;BME280;35951;47.848;-122.338;2022-08-23T02:28:14;101554.21;;;22.20;100.00
50065;BME280;35951;47.848;-122.338;2022-08-23T02:30:43;101553.02;;;22.16;100.00
50065;BME280;35951;47.848;-122.338;2022-08-23T02:33:11;101547.81;;;22.11;100.00
50065;BME280;35951;47.848;-122.338;2022-08-23T02:35:39;101551.47;;;22.05;100.00
50065;BME280;35951;47.848;-122.338;2022-08-23T02:38:09;101549.44;;;21.97;100.00
50065;BME280;35951;47.848;-122.338;2022-08-23T02:40:38;101550.02;;;21.92;100.00
50065;BME280;35951;47.848;-122.338;2022-08-23T02:43:06;101548.39;;;21.87;100.00
50065;BME280;35951;47.848;-122.338;2022-08-23T02:45:35;101552.00;;;21.81;100.00
50065;BME280;35951;47.848;-122.338;2022-08-23T02:48:03;101559.14;;;21.77;100.00
50065;BME280;35951;47.848;-122.338;2022-08-23T02:50:31;101550.88;;;21.72;100.00
50065;BME280;35951;47.848;-122.338;2022-08-23T02:52:58;101554.48;;;21.69;100.00
50065;BME280;35951;47.848;-122.338;2022-08-23T02:55:26;101552.75;;;21.66;100.00
50065;BME280;35951;47.848;-122.338;2022-08-23T02:57:54;101557.66;;;21.64;100.00
50065;BME280;35951;47.848;-122.338;2022-08-23T03:00:22;101563.91;;;21.61;100.00
50065;BME280;35951;47.848;-122.338;2022-08-23T03:02:50;101559.99;;;21.58;100.00
50065;BME280;35951;47.848;-122.338;2022-08-23T03:05:17;101559.64;;;21.54;100.00
50065;BME280;35951;47.848;-122.338;2022-08-23T03:07:45;101560.64;;;21.49;100.00
50065;BME280;35951;47.848;-122.338;2022-08-23T03:10:13;101560.28;;;21.43;100.00
50065;BME280;35951;47.848;-122.338;2022-08-23T03:12:42;101566.97;;;21.38;100.00
50065;BME280;35951;47.848;-122.338;2022-08-23T03:15:10;101566.62;;;21.34;100.00
50065;BME280;35951;47.848;-122.338;2022-08-23T03:17:37;101567.97;;;21.33;100.00
50065;BME280;35951;47.848;-122.338;2022-08-23T03:20:06;101575.11;;;21.27;100.00
50065;BME280;35951;47.848;-122.338;2022-08-23T03:22:34;101573.02;;;21.21;100.00
50065;BME280;35951;47.848;-122.338;2022-08-23T03:25:03;101581.53;;;21.14;100.00
50065;BME280;35951;47.848;-122.338;2022-08-23T03:27:31;101578.55;;;21.08;100.00
50065;BME280;35951;47.848;-122.338;2022-08-23T03:29:59;101579.55;;;21.03;100.00
50065;BME280;35951;47.848;-122.338;2022-08-23T03:32:26;101576.52;;;20.99;100.00
50065;BME280;35951;47.848;-122.338;2022-08-23T03:34:54;101581.91;;;20.93;100.00
50065;BME280;35951;47.848;-122.338;2022-08-23T03:37:22;101589.48;;;20.88;100.00
50065;BME280;35951;47.848;-122.338;2022-08-23T03:39:49;101581.66;;;20.81;100.00
50065;BME280;35951;47.848;-122.338;2022-08-23T03:42:18;101584.48;;;20.70;100.00
50065;BME280;35951;47.848;-122.338;2022-08-23T03:44:45;101580.67;;;20.61;100.00
50065;BME280;35951;47.848;-122.338;2022-08-23T03:47:13;101590.05;;;20.50;100.00
50065;BME280;35951;47.848;-122.338;2022-08-23T03:49:40;101584.44;;;20.43;100.00
50065;BME280;35951;47.848;-122.338;2022-08-23T03:52:08;101583.72;;;20.33;100.00
50065;BME280;35951;47.848;-122.338;2022-08-23T03:54:36;101590.42;;;20.27;100.00
50065;BME280;35951;47.848;-122.338;2022-08-23T03:57:06;101588.34;;;20.17;100.00
50065;BME280;35951;47.848;-122.338;2022-08-23T03:59:36;101596.36;;;20.11;100.00
50065;BME280;35951;47.848;-122.338;2022-08-23T04:02:05;101595.56;;;20.04;100.00
50065;BME280;35951;47.848;-122.338;2022-08-23T04:04:34;101597.82;;;20.00;100.00
50065;BME280;35951;47.848;-122.338;2022-08-23T04:07:01;101592.16;;;19.98;100.00
50065;BME280;35951;47.848;-122.338;2022-08-23T04:09:29;101597.42;;;19.98;100.00
50065;BME280;35951;47.848;-122.338;2022-08-23T04:11:56;101598.77;;;19.96;100.00
50065;BME280;35951;47.848;-122.338;2022-08-23T04:14:24;101602.75;;;19.93;100.00
50065;BME280;35951;47.848;-122.338;2022-08-23T04:16:52;101598.82;;;19.90;100.00
50065;BME280;35951;47.848;-122.338;2022-08-23T04:19:20;101600.63;;;19.86;100.00
50065;BME280;35951;47.848;-122.338;2022-08-23T04:21:50;101595.43;;;19.82;100.00
50065;BME280;35951;47.848;-122.338;2022-08-23T04:24:19;101594.14;;;19.79;100.00
50065;BME280;35951;47.848;-122.338;2022-08-23T04:26:48;101600.32;;;19.78;100.00
50065;BME280;35951;47.848;-122.338;2022-08-23T04:29:16;101598.59;;;19.73;100.00
50065;BME280;35951;47.848;-122.338;2022-08-23T04:31:44;101598.16;;;19.71;100.00
50065;BME280;35951;47.848;-122.338;2022-08-23T04:34:12;101598.17;;;19.69;100.00
50065;BME280;35951;47.848;-122.338;2022-08-23T04:36:42;101597.34;;;19.66;100.00
50065;BME280;35951;47.848;-122.338;2022-08-23T04:39:10;101599.56;;;19.65;100.00
50065;BME280;35951;47.848;-122.338;2022-08-23T04:41:37;101603.95;;;19.63;100.00
50065;BME280;35951;47.848;-122.338;2022-08-23T04:44:23;101609.70;;;19.61;100.00
50065;BME280;35951;47.848;-122.338;2022-08-23T04:46:50;101603.16;;;19.58;100.00
50065;BME280;35951;47.848;-122.338;2022-08-23T04:49:18;101608.01;;;19.55;100.00
50065;BME280;35951;47.848;-122.338;2022-08-23T04:51:48;101608.47;;;19.53;100.00
50065;BME280;35951;47.848;-122.338;2022-08-23T04:54:16;101609.39;;;19.50;100.00
50065;BME280;35951;47.848;-122.338;2022-08-23T04:56:43;101608.09;;;19.47;100.00
50065;BME280;35951;47.848;-122.338;2022-08-23T04:59:11;101611.23;;;19.41;100.00
50065;BME280;35951;47.848;-122.338;2022-08-23T05:01:38;101604.70;;;19.37;100.00
50065;BME280;35951;47.848;-122.338;2022-08-23T05:04:07;101614.82;;;19.33;100.00
50065;BME280;35951;47.848;-122.338;2022-08-23T05:06:34;101611.39;;;19.28;100.00
50065;BME280;35951;47.848;-122.338;2022-08-23T05:09:04;101610.97;;;19.24;100.00
50065;BME280;35951;47.848;-122.338;2022-08-23T05:11:31;101615.38;;;19.24;100.00
50065;BME280;35951;47.848;-122.338;2022-08-23T05:13:59;101617.61;;;19.21;100.00
50065;BME280;35951;47.848;-122.338;2022-08-23T05:16:27;101622.88;;;19.21;100.00
50065;BME280;35951;47.848;-122.338;2022-08-23T05:18:54;101631.64;;;19.22;100.00
50065;BME280;35951;47.848;-122.338;2022-08-23T05:21:23;101632.97;;;19.18;100.00
50065;BME280;35951;47.848;-122.338;2022-08-23T05:23:51;101628.63;;;19.14;100.00
50065;BME280;35951;47.848;-122.338;2022-08-23T05:26:19;101631.72;;;19.14;100.00
50065;BME280;35951;47.848;-122.338;2022-08-23T05:28:48;101637.00;;;19.12;100.00
50065;BME280;35951;47.848;-122.338;2022-08-23T05:31:21;101637.87;;;19.11;100.00
50065;BME280;35951;47.848;-122.338;2022-08-23T05:33:52;101633.98;;;19.07;100.00
50065;BME280;35951;47.848;-122.338;2022-08-23T05:36:19;101635.30;;;19.05;100.00
50065;BME280;35951;47.848;-122.338;2022-08-23T05:38:48;101637.09;;;19.02;100.00
50065;BME280;35951;47.848;-122.338;2022-08-23T05:41:17;101639.33;;;18.97;100.00
50065;BME280;35951;47.848;-122.338;2022-08-23T05:43:45;101634.53;;;18.94;100.00
50065;BME280;35951;47.848;-122.338;2022-08-23T05:46:16;101636.31;;;18.90;100.00
50065;BME280;35951;47.848;-122.338;2022-08-23T05:48:47;101637.64;;;18.89;100.00
50065;BME280;35951;47.848;-122.338;2022-08-23T05:53:48;101638.51;;;18.88;100.00
50065;BME280;35951;47.848;-122.338;2022-08-23T05:56:25;101636.80;;;18.84;100.00
50065;BME280;35951;47.848;-122.338;2022-08-23T05:58:56;101629.81;;;18.81;100.00
50065;BME280;35951;47.848;-122.338;2022-08-23T06:01:26;101628.47;;;18.78;100.00
50065;BME280;35951;47.848;-122.338;2022-08-23T06:03:57;101623.67;;;18.74;100.00
50065;BME280;35951;47.848;-122.338;2022-08-23T06:06:25;101629.80;;;18.75;100.00
50065;BME280;35951;47.848;-122.338;2022-08-23T06:08:52;101625.86;;;18.73;100.00
50065;BME280;35951;47.848;-122.338;2022-08-23T06:11:22;101631.18;;;18.69;100.00
50065;BME280;35951;47.848;-122.338;2022-08-23T06:13:54;101632.09;;;18.65;100.00
50065;BME280;35951;47.848;-122.338;2022-08-23T06:16:25;101630.33;;;18.64;100.00
50065;BME280;35951;47.848;-122.338;2022-08-23T06:18:55;101630.34;;;18.60;100.00
50065;BME280;35951;47.848;-122.338;2022-08-23T06:21:23;101627.72;;;18.59;100.00
50065;BME280;35951;47.848;-122.338;2022-08-23T06:23:51;101622.05;;;18.56;100.00
50065;BME280;35951;47.848;-122.338;2022-08-23T06:26:24;101620.75;;;18.52;100.00
50065;BME280;35951;47.848;-122.338;2022-08-23T06:28:54;101634.36;;;18.50;100.00
50065;BME280;35951;47.848;-122.338;2022-08-23T06:31:24;101634.41;;;18.45;100.00
50065;BME280;35951;47.848;-122.338;2022-08-23T06:34:18;101638.81;;;18.41;100.00
50065;BME280;35951;47.848;-122.338;2022-08-23T06:36:50;101640.59;;;18.39;100.00
50065;BME280;35951;47.848;-122.338;2022-08-23T06:39:20;101639.73;;;18.37;100.00
50065;BME280;35951;47.848;-122.338;2022-08-23T06:41:50;101639.73;;;18.34;100.00
50065;BME280;35951;47.848;-122.338;2022-08-23T06:44:19;101640.64;;;18.30;100.00
50065;BME280;35951;47.848;-122.338;2022-08-23T06:46:47;101646.78;;;18.26;100.00
50065;BME280;35951;47.848;-122.338;2022-08-23T06:49:15;101643.28;;;18.24;100.00
50065;BME280;35951;47.848;-122.338;2022-08-23T06:51:45;101642.88;;;18.21;100.00
50065;BME280;35951;47.848;-122.338;2022-08-23T06:54:16;101641.56;;;18.20;100.00
50065;BME280;35951;47.848;-122.338;2022-08-23T06:56:46;101640.25;;;18.18;100.00
50065;BME280;35951;47.848;-122.338;2022-08-23T06:59:13;101635.89;;;18.14;100.00
50065;BME280;35951;47.848;-122.338;2022-08-23T07:04:19;101630.68;;;18.08;100.00
50065;BME280;35951;47.848;-122.338;2022-08-23T07:06:51;101629.37;;;18.05;100.00
50065;BME280;35951;47.848;-122.338;2022-08-23T07:09:20;101630.69;;;18.02;100.00
50065;BME280;35951;47.848;-122.338;2022-08-23T07:11:47;101626.75;;;17.99;100.00
50065;BME280;35951;47.848;-122.338;2022-08-23T07:14:17;101627.65;;;17.98;100.00
50065;BME280;35951;47.848;-122.338;2022-08-23T07:16:50;101628.97;;;17.95;100.00
50065;BME280;35951;47.848;-122.338;2022-08-23T07:19:22;101622.43;;;17.90;100.00
50065;BME280;35951;47.848;-122.338;2022-08-23T07:21:51;101625.06;;;17.89;100.00
50065;BME280;35951;47.848;-122.338;2022-08-23T07:24:18;101622.44;;;17.87;100.00
50065;BME280;35951;47.848;-122.338;2022-08-23T07:26:48;101620.67;;;17.88;100.00
50065;BME280;35951;47.848;-122.338;2022-08-23T07:29:18;101617.59;;;17.83;100.00
50065;BME280;35951;47.848;-122.338;2022-08-23T07:31:49;101619.36;;;17.75;100.00
50065;BME280;35951;47.848;-122.338;2022-08-23T07:34:19;101621.58;;;17.71;100.00
50065;BME280;35951;47.848;-122.338;2022-08-23T07:36:48;101625.52;;;17.70;100.00
50065;BME280;35951;47.848;-122.338;2022-08-23T07:39:17;101626.83;;;17.68;100.00
50065;BME280;35951;47.848;-122.338;2022-08-23T07:41:45;101629.05;;;17.65;100.00
50065;BME280;35951;47.848;-122.338;2022-08-23T07:44:13;101628.62;;;17.61;100.00
50065;BME280;35951;47.848;-122.338;2022-08-23T07:46:42;101631.25;;;17.60;100.00
50065;BME280;35951;47.848;-122.338;2022-08-23T07:49:11;101625.55;;;17.59;100.00
50065;BME280;35951;47.848;-122.338;2022-08-23T07:51:40;101627.31;;;17.58;100.00
50065;BME280;35951;47.848;-122.338;2022-08-23T07:54:10;101630.39;;;17.56;100.00
50065;BME280;35951;47.848;-122.338;2022-08-23T07:56:38;101627.76;;;17.56;100.00
50065;BME280;35951;47.848;-122.338;2022-08-23T07:59:07;101633.02;;;17.55;100.00
50065;BME280;35951;47.848;-122.338;2022-08-23T08:01:35;101631.28;;;17.52;100.00
50065;BME280;35951;47.848;-122.338;2022-08-23T08:04:04;101633.45;;;17.50;100.00
50065;BME280;35951;47.848;-122.338;2022-08-23T08:06:38;101634.35;;;17.47;100.00
50065;BME280;35951;47.848;-122.338;2022-08-23T08:09:09;101640.50;;;17.44;100.00
50065;BME280;35951;47.848;-122.338;2022-08-23T08:11:40;101628.25;;;17.34;100.00
50065;BME280;35951;47.848;-122.338;2022-08-23T08:14:10;101636.58;;;17.31;100.00
50065;BME280;35951;47.848;-122.338;2022-08-23T08:16:44;101644.44;;;17.27;100.00
50065;BME280;35951;47.848;-122.338;2022-08-23T08:19:14;101642.27;;;17.25;100.00
50065;BME280;35951;47.848;-122.338;2022-08-23T08:21:42;101642.70;;;17.23;100.00
50065;BME280;35951;47.848;-122.338;2022-08-23T08:24:10;101643.56;;;17.22;100.00
50065;BME280;35951;47.848;-122.338;2022-08-23T08:26:40;101641.39;;;17.22;100.00
50065;BME280;35951;47.848;-122.338;2022-08-23T08:29:09;101642.28;;;17.21;100.00
50065;BME280;35951;47.848;-122.338;2022-08-23T08:31:39;101645.32;;;17.19;100.00
50065;BME280;35951;47.848;-122.338;2022-08-23T08:34:07;101643.59;;;17.16;100.00
50065;BME280;35951;47.848;-122.338;2022-08-23T08:36:45;101644.02;;;17.11;100.00
50065;BME280;35951;47.848;-122.338;2022-08-23T08:39:22;101638.77;;;17.08;100.00
50065;BME280;35951;47.848;-122.338;2022-08-23T08:45:08;101637.48;;;17.06;100.00
50065;BME280;35951;47.848;-122.338;2022-08-23T08:47:46;101645.34;;;17.03;100.00
50065;BME280;35951;47.848;-122.338;2022-08-23T08:50:24;101638.77;;;17.00;100.00
50065;BME280;35951;47.848;-122.338;2022-08-23T08:53:08;101635.72;;;16.95;100.00
50065;BME280;35951;47.848;-122.338;2022-08-23T08:55:52;101638.78;;;16.94;100.00
50065;BME280;35951;47.848;-122.338;2022-08-23T08:58:35;101643.61;;;16.90;100.00
50065;BME280;35951;47.848;-122.338;2022-08-23T09:01:11;101647.09;;;16.87;100.00
50065;BME280;35951;47.848;-122.338;2022-08-23T09:03:44;101641.41;;;16.83;100.00
50065;BME280;35951;47.848;-122.338;2022-08-23T09:06:21;101631.73;;;16.82;100.00
50065;BME280;35951;47.848;-122.338;2022-08-23T09:09:11;101630.42;;;16.82;100.00
50065;BME280;35951;47.848;-122.338;2022-08-23T09:12:00;101631.31;;;16.81;100.00
50065;BME280;35951;47.848;-122.338;2022-08-23T09:15:13;101637.44;;;16.82;100.00
50065;BME280;35951;47.848;-122.338;2022-08-23T09:17:46;101636.61;;;16.83;100.00
50065;BME280;35951;47.848;-122.338;2022-08-23T09:20:16;101636.56;;;16.81;100.00
50065;BME280;35951;47.848;-122.338;2022-08-23T09:22:48;101633.92;;;16.77;100.00
50065;BME280;35951;47.848;-122.338;2022-08-23T09:25:17;101644.86;;;16.75;100.00
50065;BME280;35951;47.848;-122.338;2022-08-23T09:27:45;101642.23;;;16.73;100.00
50065;BME280;35951;47.848;-122.338;2022-08-23T09:30:15;101638.31;;;16.70;100.00
50065;BME280;35951;47.848;-122.338;2022-08-23T09:32:45;101636.99;;;16.68;100.00
50065;BME280;35951;47.848;-122.338;2022-08-23T09:35:23;101637.84;;;16.66;100.00
50065;BME280;35951;47.848;-122.338;2022-08-23T09:37:59;101638.73;;;16.65;100.00
50065;BME280;35951;47.848;-122.338;2022-08-23T09:40:35;101632.59;;;16.66;100.00
50065;BME280;35951;47.848;-122.338;2022-08-23T09:43:18;101642.23;;;16.67;100.00
50065;BME280;35951;47.848;-122.338;2022-08-23T09:45:52;101640.92;;;16.68;100.00
50065;BME280;35951;47.848;-122.338;2022-08-23T09:48:39;101633.48;;;16.69;100.00
50065;BME280;35951;47.848;-122.338;2022-08-23T09:51:29;101630.84;;;16.68;100.00
50065;BME280;35951;47.848;-122.338;2022-08-23T09:56:53;101628.66;;;16.64;100.00
50065;BME280;35951;47.848;-122.338;2022-08-23T10:02:00;101625.19;;;16.61;100.00
50065;BME280;35951;47.848;-122.338;2022-08-23T10:07:31;101624.73;;;16.52;100.00
50065;BME280;35951;47.848;-122.338;2022-08-23T10:10:25;101622.52;;;16.44;100.00
50065;BME280;35951;47.848;-122.338;2022-08-23T10:13:00;101620.77;;;16.40;100.00
50065;BME280;35951;47.848;-122.338;2022-08-23T10:24:38;101627.31;;;16.32;100.00
50065;BME280;35951;47.848;-122.338;2022-08-23T10:30:11;101626.83;;;16.20;100.00
50065;BME280;35951;47.848;-122.338;2022-08-23T10:35:30;101622.87;;;16.11;100.00
50065;BME280;35951;47.848;-122.338;2022-08-23T10:38:06;101628.11;;;16.06;100.00
50065;BME280;35951;47.848;-122.338;2022-08-23T10:40:41;101633.33;;;16.02;100.00
50065;BME280;35951;47.848;-122.338;2022-08-23T10:43:33;101633.31;;;16.00;100.00
50065;BME280;35951;47.848;-122.338;2022-08-23T10:46:13;101635.51;;;15.99;100.00
50065;BME280;35951;47.848;-122.338;2022-08-23T10:48:46;101638.13;;;15.99;100.00
50065;BME280;35951;47.848;-122.338;2022-08-23T10:51:24;101633.75;;;16.00;100.00
50065;BME280;35951;47.848;-122.338;2022-08-23T10:54:22;101638.11;;;16.01;100.00
50065;BME280;35951;47.848;-122.338;2022-08-23T10:56:50;101644.25;;;16.01;100.00
50065;BME280;35951;47.848;-122.338;2022-08-23T10:59:20;101639.00;;;16.00;100.00
50065;BME280;35951;47.848;-122.338;2022-08-23T11:05:05;101641.57;;;15.89;100.00
50065;BME280;35951;47.848;-122.338;2022-08-23T11:07:36;101638.50;;;15.85;100.00
50065;BME280;35951;47.848;-122.338;2022-08-23T11:10:17;101651.15;;;15.84;100.00
50065;BME280;35951;47.848;-122.338;2022-08-23T11:13:18;101647.64;;;15.80;100.00
50065;BME280;35951;47.848;-122.338;2022-08-23T11:15:44;101645.00;;;15.74;100.00
50065;BME280;35951;47.848;-122.338;2022-08-23T11:27:00;101651.55;;;15.79;100.00
50065;BME280;35951;47.848;-122.338;2022-08-23T11:29:29;101654.20;;;15.77;100.00
50065;BME280;35951;47.848;-122.338;2022-08-23T11:35:03;101650.70;;;15.80;100.00
50065;BME280;35951;47.848;-122.338;2022-08-23T11:37:54;101651.14;;;15.82;100.00
50065;BME280;35951;47.848;-122.338;2022-08-23T11:40:41;101652.88;;;15.80;100.00
50065;BME280;35951;47.848;-122.338;2022-08-23T11:43:23;101655.05;;;15.76;100.00
50065;BME280;35951;47.848;-122.338;2022-08-23T11:49:16;101649.27;;;15.66;100.00
50065;BME280;35951;47.848;-122.338;2022-08-23T11:52:10;101647.95;;;15.61;100.00
50065;BME280;35951;47.848;-122.338;2022-08-23T12:01:08;101648.77;;;15.52;100.00
50065;BME280;35951;47.848;-122.338;2022-08-23T12:06:38;101635.22;;;15.48;100.00
50065;BME280;35951;47.848;-122.338;2022-08-23T12:20:07;101637.77;;;15.41;100.00
50065;BME280;35951;47.848;-122.338;2022-08-23T12:25:41;101638.20;;;15.40;100.00
50065;BME280;35951;47.848;-122.338;2022-08-23T12:31:30;101640.38;;;15.41;100.00
50065;BME280;35951;47.848;-122.338;2022-08-23T12:34:59;101640.83;;;15.40;100.00
50065;BME280;35951;47.848;-122.338;2022-08-23T12:37:07;101637.77;;;15.41;100.00
50065;BME280;35951;47.848;-122.338;2022-08-23T12:39:53;101636.02;;;15.38;100.00
50065;BME280;35951;47.848;-122.338;2022-08-23T12:42:40;101625.95;;;15.34;100.00
50065;BME280;35951;47.848;-122.338;2022-08-23T12:45:05;101625.08;;;15.32;100.00
50065;BME280;35951;47.848;-122.338;2022-08-23T12:47:34;101641.23;;;15.32;100.00
50065;BME280;35951;47.848;-122.338;2022-08-23T12:52:37;101630.30;;;15.31;100.00
50065;BME280;35951;47.848;-122.338;2022-08-23T12:55:16;101636.81;;;15.28;100.00
50065;BME280;35951;47.848;-122.338;2022-08-23T12:57:50;101636.38;;;15.27;100.00
50065;BME280;35951;47.848;-122.338;2022-08-23T13:01:16;101633.30;;;15.24;100.00
50065;BME280;35951;47.848;-122.338;2022-08-23T13:03:17;101638.10;;;15.23;100.00
50065;BME280;35951;47.848;-122.338;2022-08-23T13:06:03;101638.07;;;15.20;100.00
50065;BME280;35951;47.848;-122.338;2022-08-23T13:08:38;101642.42;;;15.18;100.00
50065;BME280;35951;47.848;-122.338;2022-08-23T13:11:08;101642.41;;;15.16;100.00
50065;BME280;35951;47.848;-122.338;2022-08-23T13:13:39;101643.27;;;15.14;100.00
50065;BME280;35951;47.848;-122.338;2022-08-23T13:16:32;101644.14;;;15.14;100.00
50065;BME280;35951;47.848;-122.338;2022-08-23T13:25:05;101642.45;;;15.21;100.00
50065;BME280;35951;47.848;-122.338;2022-08-23T13:30:32;101643.78;;;15.23;100.00
50065;BME280;35951;47.848;-122.338;2022-08-23T13:35:45;101633.25;;;15.13;100.00
50065;BME280;35951;47.848;-122.338;2022-08-23T13:38:25;101632.33;;;15.08;100.00
50065;BME280;35951;47.848;-122.338;2022-08-23T13:41:10;101636.66;;;15.05;100.00
50065;BME280;35951;47.848;-122.338;2022-08-23T13:43:49;101652.77;;;15.04;100.00
50065;BME280;35951;47.848;-122.338;2022-08-23T13:46:28;101658.02;;;15.06;100.00
50065;BME280;35951;47.848;-122.338;2022-08-23T13:49:05;101660.23;;;15.06;100.00
50065;BME280;35951;47.848;-122.338;2022-08-23T13:54:27;101660.64;;;15.06;100.00
50065;BME280;35951;47.848;-122.338;2022-08-23T13:57:01;101663.26;;;15.06;100.00
50065;BME280;35951;47.848;-122.338;2022-08-23T13:59:33;101666.30;;;15.04;100.00
50065;BME280;35951;47.848;-122.338;2022-08-23T14:02:11;101673.28;;;15.03;100.00
50065;BME280;35951;47.848;-122.338;2022-08-23T14:04:40;101671.95;;;15.02;100.00
50065;BME280;35951;47.848;-122.338;2022-08-23T14:07:09;101676.75;;;15.02;100.00
50065;BME280;35951;47.848;-122.338;2022-08-23T14:09:38;101667.58;;;14.99;100.00
50065;BME280;35951;47.848;-122.338;2022-08-23T14:12:13;101651.86;;;14.97;100.00
50065;BME280;35951;47.848;-122.338;2022-08-23T14:14:44;101646.17;;;14.96;100.00